createdAt,value
2024-02-28T00:01:34.176Z,96563.53
2024-02-28T00:04:00.682Z,96570.72
2024-02-28T00:06:27.194Z,96576.63
2024-02-28T00:08:53.660Z,96585.28
2024-02-28T00:11:20.104Z,96598.16
2024-02-28T00:13:46.575Z,96587.47
2024-02-28T00:16:13.049Z,96591.75
2024-02-28T00:18:39.574Z,96592.66
2024-02-28T00:21:06.070Z,96594.66
2024-02-28T00:23:32.532Z,96593.19
2024-02-28T00:25:58.965Z,96594.75
2024-02-28T00:28:25.429Z,96586.19
2024-02-28T00:30:51.913Z,96596.97
2024-02-28T00:33:18.415Z,96595.81
2024-02-28T00:35:44.885Z,96594.19
2024-02-28T00:38:11.319Z,96595.63
2024-02-28T00:40:37.767Z,96609.81
2024-02-28T00:43:04.252Z,96596.13
2024-02-28T00:45:30.841Z,96602.16
2024-02-28T00:47:57.534Z,96607.84
2024-02-28T00:50:24.119Z,96604.50
2024-02-28T00:52:50.605Z,96616.50
2024-02-28T00:55:17.117Z,96622.75
2024-02-28T00:57:43.872Z,96621.25
2024-02-28T01:00:10.468Z,96610.97
2024-02-28T01:02:36.962Z,96607.16
2024-02-28T01:05:03.509Z,96613.84
2024-02-28T01:07:30.008Z,96614.09
2024-02-28T01:09:56.519Z,96611.53
2024-02-28T01:12:23.090Z,96620.81
2024-02-28T01:14:49.710Z,96616.38
2024-02-28T01:17:16.282Z,96619.91
2024-02-28T01:19:42.798Z,96618.94
2024-02-28T01:22:09.264Z,96615.47
2024-02-28T01:24:35.943Z,96615.03
2024-02-28T01:27:02.463Z,96622.78
2024-02-28T01:29:28.898Z,96622.44
2024-02-28T01:31:55.404Z,96624.16
2024-02-28T01:34:21.885Z,96616.16
2024-02-28T01:36:48.481Z,96614.91
2024-02-28T01:39:14.982Z,96618.38
2024-02-28T01:41:41.444Z,96617.59
2024-02-28T01:44:07.904Z,96620.47
2024-02-28T01:46:34.364Z,96626.38
2024-02-28T01:49:00.880Z,96628.78
2024-02-28T01:51:27.355Z,96635.25
2024-02-28T01:53:53.945Z,96630.28
2024-02-28T01:56:20.412Z,96633.16
2024-02-28T01:58:46.947Z,96623.69
2024-02-28T02:01:13.539Z,96626.72
2024-02-28T02:03:40.123Z,96623.47
2024-02-28T02:06:06.603Z,96635.03
2024-02-28T02:08:33.287Z,96627.63
2024-02-28T02:10:59.837Z,96638.41
2024-02-28T02:13:26.295Z,96634.34
2024-02-28T02:15:52.789Z,96637.34
2024-02-28T02:18:19.373Z,96638.50
2024-02-28T02:20:45.903Z,96639.56
2024-02-28T02:23:12.383Z,96652.28
2024-02-28T02:25:38.845Z,96652.41
2024-02-28T02:28:05.313Z,96652.97
2024-02-28T02:30:31.879Z,96656.19
2024-02-28T02:32:58.447Z,96651.91
2024-02-28T02:35:24.933Z,96665.69
2024-02-28T02:37:51.589Z,96664.53
2024-02-28T02:40:18.083Z,96667.31
2024-02-28T02:42:44.799Z,96666.72
2024-02-28T02:45:11.318Z,96674.25
2024-02-28T02:47:38.013Z,96671.97
2024-02-28T02:50:04.480Z,96674.63
2024-02-28T02:52:30.925Z,96675.97
2024-02-28T02:54:57.449Z,96671.34
2024-02-28T02:57:23.958Z,96675.06
2024-02-28T02:59:50.455Z,96679.00
2024-02-28T03:02:16.926Z,96679.47
2024-02-28T03:04:43.392Z,96683.41
2024-02-28T03:07:09.984Z,96685.72
2024-02-28T03:09:36.521Z,96692.16
2024-02-28T03:12:03.036Z,96690.91
2024-02-28T03:14:29.514Z,96693.56
2024-02-28T03:16:56.016Z,96695.63
2024-02-28T03:19:22.479Z,96694.72
2024-02-28T03:21:49.084Z,96707.41
2024-02-28T03:24:16.912Z,96699.34
2024-02-28T03:26:43.415Z,96700.25
2024-02-28T03:29:10.059Z,96705.16
2024-02-28T03:31:36.515Z,96706.63
2024-02-28T03:34:03.049Z,96712.66
2024-02-28T03:36:29.624Z,96705.25
2024-02-28T03:38:56.135Z,96707.75
2024-02-28T03:41:22.651Z,96716.03
2024-02-28T03:43:49.190Z,96727.13
2024-02-28T03:46:15.704Z,96720.88
2024-02-28T03:48:42.278Z,96724.59
2024-02-28T03:51:08.766Z,96732.91
2024-02-28T03:53:35.262Z,96739.41
2024-02-28T03:56:01.767Z,96733.38
2024-02-28T03:58:28.261Z,96736.38
2024-02-28T04:00:54.781Z,96741.50
2024-02-28T04:03:21.321Z,96750.53
2024-02-28T04:05:47.772Z,96742.41
2024-02-28T04:08:14.308Z,96752.47
2024-02-28T04:10:40.895Z,96754.53
2024-02-28T04:13:07.452Z,96750.75
2024-02-28T04:15:34.067Z,96757.91
2024-02-28T04:18:00.821Z,96761.72
2024-02-28T04:20:27.282Z,96761.38
2024-02-28T04:22:53.775Z,96760.13
2024-02-28T04:25:20.234Z,96765.00
2024-02-28T04:27:46.782Z,96770.44
2024-02-28T04:30:13.360Z,96770.75
2024-02-28T04:32:39.993Z,96784.66
2024-02-28T04:35:06.487Z,96781.06
2024-02-28T04:37:32.928Z,96783.16
2024-02-28T04:39:59.416Z,96778.88
2024-02-28T04:42:26.061Z,96789.63
2024-02-28T04:44:52.568Z,96786.50
2024-02-28T04:47:23.586Z,96796.59
2024-02-28T04:49:53.693Z,96799.94
2024-02-28T04:52:24.500Z,96794.50
2024-02-28T04:54:51.244Z,96794.38
2024-02-28T04:57:17.840Z,96793.13
2024-02-28T04:59:44.326Z,96804.78
2024-02-28T05:02:10.822Z,96802.91
2024-02-28T05:04:37.285Z,96807.16
2024-02-28T05:07:03.820Z,96803.84
2024-02-28T05:09:30.410Z,96799.31
2024-02-28T05:11:56.896Z,96803.97
2024-02-28T05:14:23.340Z,96801.19
2024-02-28T05:16:49.811Z,96807.81
2024-02-28T05:19:16.266Z,96813.81
2024-02-28T05:21:42.828Z,96817.41
2024-02-28T05:24:09.332Z,96824.47
2024-02-28T05:26:35.795Z,96832.56
2024-02-28T05:29:02.266Z,96827.97
2024-02-28T05:31:28.724Z,96837.78
2024-02-28T05:33:55.308Z,96840.69
2024-02-28T05:36:21.867Z,96837.09
2024-02-28T05:38:48.389Z,96841.72
2024-02-28T05:41:14.934Z,96848.91
2024-02-28T05:43:41.391Z,96847.41
2024-02-28T05:46:07.897Z,96845.69
2024-02-28T05:48:34.521Z,96843.94
2024-02-28T05:51:01.018Z,96846.25
2024-02-28T05:53:27.512Z,96857.94
2024-02-28T05:55:53.972Z,96865.47
2024-02-28T05:58:20.453Z,96865.94
2024-02-28T06:00:46.962Z,96872.06
2024-02-28T06:03:13.446Z,96873.56
2024-02-28T06:05:42.463Z,96879.25
2024-02-28T06:08:10.113Z,96882.16
2024-02-28T06:10:36.590Z,96891.63
2024-02-28T06:13:03.095Z,96891.00
2024-02-28T06:15:29.660Z,96898.69
2024-02-28T06:17:56.158Z,96903.66
2024-02-28T06:20:22.669Z,96904.72
2024-02-28T06:22:49.180Z,96901.78
2024-02-28T06:25:15.630Z,96910.00
2024-02-28T06:27:42.129Z,96904.94
2024-02-28T06:30:08.596Z,96904.38
2024-02-28T06:32:35.067Z,96910.31
2024-02-28T06:35:01.637Z,96915.34
2024-02-28T06:37:28.110Z,96913.47
2024-02-28T06:39:54.630Z,96915.50
2024-02-28T06:42:21.211Z,96921.16
2024-02-28T06:44:47.653Z,96930.22
2024-02-28T06:47:14.109Z,96928.91
2024-02-28T06:49:40.611Z,96930.00
2024-02-28T06:52:07.153Z,96923.88
2024-02-28T06:54:33.738Z,96924.84
2024-02-28T06:57:00.281Z,96934.56
2024-02-28T06:59:26.792Z,96945.69
2024-02-28T07:01:53.299Z,96938.91
2024-02-28T07:04:19.818Z,96940.22
2024-02-28T07:06:46.340Z,96949.25
2024-02-28T07:09:12.836Z,96945.84
2024-02-28T07:11:39.281Z,96948.03
2024-02-28T07:14:05.724Z,96959.81
2024-02-28T07:16:32.185Z,96957.91
2024-02-28T07:18:59.069Z,96962.69
2024-02-28T07:21:25.564Z,96968.16
2024-02-28T07:23:52.048Z,96970.44
2024-02-28T07:26:26.486Z,96962.16
2024-02-28T07:28:53.989Z,96981.88
2024-02-28T07:31:20.560Z,96984.81
2024-02-28T07:33:47.061Z,96982.66
2024-02-28T07:36:13.541Z,96989.94
2024-02-28T07:38:40.057Z,96991.34
2024-02-28T07:41:06.550Z,96986.72
2024-02-28T07:43:33.042Z,97000.94
2024-02-28T07:45:59.501Z,97001.25
2024-02-28T07:48:26.287Z,96998.78
2024-02-28T07:50:52.857Z,96999.13
2024-02-28T07:53:19.542Z,97003.91
2024-02-28T07:55:46.222Z,97006.28
2024-02-28T07:58:12.742Z,97010.69
2024-02-28T08:00:39.423Z,97009.69
2024-02-28T08:03:06.121Z,97015.19
2024-02-28T08:05:32.744Z,97016.31
2024-02-28T08:07:59.271Z,97017.16
2024-02-28T08:10:25.772Z,97030.81
2024-02-28T08:12:52.488Z,97027.78
2024-02-28T08:15:19.166Z,97034.22
2024-02-28T08:17:45.701Z,97029.56
2024-02-28T08:20:12.317Z,97030.75
2024-02-28T08:22:39.060Z,97042.25
2024-02-28T08:25:05.551Z,97031.78
2024-02-28T08:27:33.208Z,97037.25
2024-02-28T08:29:59.880Z,97032.16
2024-02-28T08:32:26.353Z,97037.81
2024-02-28T08:34:52.841Z,97047.28
2024-02-28T08:37:19.389Z,97038.19
2024-02-28T08:39:45.907Z,97043.31
2024-02-28T08:42:12.425Z,97045.75
2024-02-28T08:44:38.906Z,97044.56
2024-02-28T08:47:05.404Z,97044.66
2024-02-28T08:49:31.945Z,97042.34
2024-02-28T08:51:58.491Z,97051.75
2024-02-28T08:54:25.119Z,97053.72
2024-02-28T08:56:56.761Z,97063.84
2024-02-28T08:59:26.921Z,97053.53
2024-02-28T09:01:53.416Z,97056.75
2024-02-28T09:04:19.909Z,97054.28
2024-02-28T09:06:46.404Z,97051.69
2024-02-28T09:09:13.000Z,97049.94
2024-02-28T09:11:39.543Z,97052.47
2024-02-28T09:14:05.987Z,97057.03
2024-02-28T09:16:32.610Z,97064.84
2024-02-28T09:18:59.156Z,97052.38
2024-02-28T09:21:25.706Z,97051.03
2024-02-28T09:23:52.186Z,97055.38
2024-02-28T09:26:18.629Z,97062.75
2024-02-28T09:28:45.092Z,97050.28
2024-02-28T09:31:11.624Z,97053.44
2024-02-28T09:33:38.250Z,97052.56
2024-02-28T09:36:04.738Z,97053.88
2024-02-28T09:38:31.236Z,97049.53
2024-02-28T09:40:57.693Z,97056.06
2024-02-28T09:43:24.273Z,97060.47
2024-02-28T09:45:50.856Z,97057.25
2024-02-28T09:48:17.827Z,97060.41
2024-02-28T09:50:44.493Z,97061.28
2024-02-28T09:53:11.491Z,97057.81
2024-02-28T09:55:38.303Z,97054.47
2024-02-28T09:58:05.071Z,97059.56
2024-02-28T10:00:31.675Z,97062.41
2024-02-28T10:02:58.128Z,97056.53
2024-02-28T10:05:24.606Z,97069.25
2024-02-28T10:07:51.090Z,97072.53
2024-02-28T10:10:17.550Z,97065.69
2024-02-28T10:12:44.087Z,97067.19
2024-02-28T10:15:10.556Z,97071.34
2024-02-28T10:17:37.038Z,97069.94
2024-02-28T10:20:03.633Z,97075.81
2024-02-28T10:22:30.115Z,97069.25
2024-02-28T10:24:56.626Z,97075.59
2024-02-28T10:27:23.154Z,97078.81
2024-02-28T10:29:49.703Z,97088.13
2024-02-28T10:32:16.136Z,97077.44
2024-02-28T10:34:42.687Z,97086.25
2024-02-28T10:37:09.152Z,97085.41
2024-02-28T10:39:35.738Z,97089.59
2024-02-28T10:42:02.382Z,97080.47
2024-02-28T10:44:28.972Z,97092.09
2024-02-28T10:46:55.471Z,97088.94
2024-02-28T10:49:21.959Z,97087.03
2024-02-28T10:51:48.499Z,97093.13
2024-02-28T10:54:15.550Z,97092.44
2024-02-28T10:56:42.697Z,97094.63
2024-02-28T10:59:11.654Z,97096.38
2024-02-28T11:01:38.777Z,97102.19
2024-02-28T11:04:05.391Z,97101.72
2024-02-28T11:06:32.018Z,97105.44
2024-02-28T11:08:58.558Z,97100.19
2024-02-28T11:11:25.175Z,97106.47
2024-02-28T11:13:51.683Z,97113.78
2024-02-28T11:16:18.174Z,97111.94
2024-02-28T11:18:44.893Z,97107.97
2024-02-28T11:21:12.693Z,97109.44
2024-02-28T11:23:39.336Z,97112.00
2024-02-28T11:26:05.917Z,97110.75
2024-02-28T11:28:32.450Z,97117.69
2024-02-28T11:30:58.977Z,97117.53
2024-02-28T11:33:25.590Z,97114.47
2024-02-28T11:35:52.158Z,97123.47
2024-02-28T11:38:18.600Z,97120.47
2024-02-28T11:40:45.226Z,97122.00
2024-02-28T11:43:11.787Z,97109.00
2024-02-28T11:45:38.315Z,97118.06
2024-02-28T11:48:04.858Z,97117.13
2024-02-28T11:50:31.413Z,97112.13
2024-02-28T11:52:57.933Z,97115.78
2024-02-28T11:55:24.378Z,97108.06
2024-02-28T11:57:51.051Z,97121.50
2024-02-28T12:00:17.543Z,97119.47
2024-02-28T12:02:44.033Z,97107.19
2024-02-28T12:05:10.625Z,97110.91
2024-02-28T12:07:37.104Z,97098.81
2024-02-28T12:10:03.687Z,97105.97
2024-02-28T12:12:30.202Z,97106.91
2024-02-28T12:14:56.709Z,97112.28
2024-02-28T12:17:23.249Z,97108.03
2024-02-28T12:19:51.908Z,97112.22
2024-02-28T12:22:19.843Z,97110.59
2024-02-28T12:24:46.409Z,97106.19
2024-02-28T12:27:12.893Z,97104.78
2024-02-28T12:29:39.366Z,97104.78
2024-02-28T12:32:05.809Z,97098.34
2024-02-28T12:34:32.466Z,97109.25
2024-02-28T12:36:59.012Z,97113.63
2024-02-28T12:39:25.484Z,97110.31
2024-02-28T12:41:52.087Z,97111.94
2024-02-28T12:44:18.644Z,97111.47
2024-02-28T12:46:45.268Z,97110.00
2024-02-28T12:49:11.830Z,97101.22
2024-02-28T12:51:38.538Z,97103.59
2024-02-28T12:54:05.061Z,97109.69
2024-02-28T12:56:31.543Z,97109.69
2024-02-28T12:58:58.027Z,97112.69
2024-02-28T13:01:24.621Z,97104.97
2024-02-28T13:03:51.124Z,97104.53
2024-02-28T13:06:17.620Z,97110.13
2024-02-28T13:08:44.090Z,97112.75
2024-02-28T13:11:10.530Z,97118.59
2024-02-28T13:13:37.015Z,97117.28
2024-02-28T13:16:03.510Z,97111.41
2024-02-28T13:18:30.158Z,97117.94
2024-02-28T13:20:56.689Z,97119.25
2024-02-28T13:23:23.179Z,97111.47
2024-02-28T13:25:49.656Z,97111.34
2024-02-28T13:28:16.114Z,97117.47
2024-02-28T13:30:42.638Z,97122.75
2024-02-28T13:33:09.200Z,97117.66
2024-02-28T13:35:35.730Z,97122.16
2024-02-28T13:38:02.180Z,97116.72
2024-02-28T13:40:28.799Z,97124.00
2024-02-28T13:42:55.350Z,97119.25
2024-02-28T13:45:21.963Z,97122.34
2024-02-28T13:47:48.455Z,97122.81
2024-02-28T13:50:14.989Z,97119.56
2024-02-28T13:52:41.491Z,97122.16
2024-02-28T13:55:08.327Z,97122.13
2024-02-28T13:57:34.894Z,97125.72
2024-02-28T14:00:01.571Z,97116.63
2024-02-28T14:02:28.332Z,97112.25
2024-02-28T14:04:54.924Z,97113.94
2024-02-28T14:07:21.373Z,97115.41
2024-02-28T14:09:48.018Z,97112.25
2024-02-28T14:12:14.525Z,97113.31
2024-02-28T14:14:41.068Z,97117.91
2024-02-28T14:17:07.578Z,97117.72
2024-02-28T14:19:34.060Z,97119.59
2024-02-28T14:22:00.588Z,97113.19
2024-02-28T14:24:27.177Z,97113.88
2024-02-28T14:26:53.696Z,97115.78
2024-02-28T14:29:20.239Z,97117.28
2024-02-28T14:31:46.669Z,97119.72
2024-02-28T14:34:13.225Z,97115.19
2024-02-28T14:36:39.699Z,97121.50
2024-02-28T14:39:06.184Z,97122.59
2024-02-28T14:41:32.610Z,97123.06
2024-02-28T14:43:59.099Z,97132.41
2024-02-28T14:46:25.548Z,97127.34
2024-02-28T14:48:52.037Z,97133.47
2024-02-28T14:51:18.508Z,97134.19
2024-02-28T14:53:44.964Z,97127.81
2024-02-28T14:56:11.486Z,97130.56
2024-02-28T14:58:37.989Z,97136.72
2024-02-28T15:01:04.547Z,97137.72
2024-02-28T15:03:31.028Z,97135.84
2024-02-28T15:05:57.480Z,97139.66
2024-02-28T15:08:23.955Z,97137.34
2024-02-28T15:10:50.442Z,97133.44
2024-02-28T15:13:16.943Z,97146.03
2024-02-28T15:15:43.690Z,97139.44
2024-02-28T15:18:10.334Z,97148.91
2024-02-28T15:20:36.793Z,97150.91
2024-02-28T15:23:03.273Z,97154.22
2024-02-28T15:25:29.711Z,97152.38
2024-02-28T15:27:56.188Z,97148.00
2024-02-28T15:30:22.631Z,97155.25
2024-02-28T15:32:49.233Z,97157.97
2024-02-28T15:35:15.891Z,97162.56
2024-02-28T15:37:42.412Z,97157.72
2024-02-28T15:40:08.909Z,97160.63
2024-02-28T15:42:35.576Z,97161.22
2024-02-28T15:45:02.112Z,97157.63
2024-02-28T15:47:30.183Z,97159.16
2024-02-28T15:49:58.077Z,97152.09
2024-02-28T15:52:24.550Z,97156.78
2024-02-28T15:54:51.022Z,97157.38
2024-02-28T15:57:17.530Z,97158.44
2024-02-28T15:59:43.967Z,97151.91
2024-02-28T16:02:10.459Z,97160.75
2024-02-28T16:04:36.888Z,97157.88
2024-02-28T16:07:03.403Z,97154.16
2024-02-28T16:09:29.904Z,97155.91
2024-02-28T16:11:56.356Z,97157.78
2024-02-28T16:14:22.849Z,97158.41
2024-02-28T16:16:49.337Z,97154.81
2024-02-28T16:19:22.549Z,97153.28
2024-02-28T16:21:53.381Z,97146.38
2024-02-28T16:24:19.944Z,97155.41
2024-02-28T16:26:46.437Z,97150.56
2024-02-28T16:29:13.014Z,97150.56
2024-02-28T16:31:39.474Z,97159.34
2024-02-28T16:34:06.050Z,97154.50
2024-02-28T16:36:32.702Z,97161.31
2024-02-28T16:38:59.378Z,97155.88
2024-02-28T16:41:25.911Z,97159.47
2024-02-28T16:43:52.411Z,97160.88
2024-02-28T16:46:18.923Z,97160.06
2024-02-28T16:48:45.505Z,97154.72
2024-02-28T16:51:11.978Z,97159.47
2024-02-28T16:53:38.427Z,97163.66
2024-02-28T16:56:04.991Z,97164.72
2024-02-28T16:58:31.513Z,97164.59
2024-02-28T17:00:58.206Z,97164.97
2024-02-28T17:03:24.813Z,97163.06
2024-02-28T17:05:51.259Z,97171.19
2024-02-28T17:08:17.800Z,97173.41
2024-02-28T17:10:44.297Z,97167.50
2024-02-28T17:13:13.887Z,97167.47
2024-02-28T17:15:40.868Z,97174.72
2024-02-28T17:18:07.439Z,97172.13
2024-02-28T17:20:33.960Z,97177.44
2024-02-28T17:23:00.424Z,97182.03
2024-02-28T17:25:26.956Z,97183.75
2024-02-28T17:27:53.530Z,97173.25
2024-02-28T17:30:20.174Z,97181.03
2024-02-28T17:32:46.670Z,97178.94
2024-02-28T17:35:13.213Z,97176.78
2024-02-28T17:37:39.652Z,97186.41
2024-02-28T17:40:06.100Z,97186.63
2024-02-28T17:42:32.658Z,97188.78
2024-02-28T17:44:59.262Z,97193.88
2024-02-28T17:47:25.721Z,97196.78
2024-02-28T17:49:52.182Z,97190.22
2024-02-28T17:52:18.792Z,97196.19
2024-02-28T17:54:45.284Z,97205.31
2024-02-28T17:57:11.798Z,97195.56
2024-02-28T17:59:38.264Z,97197.19
2024-02-28T18:02:04.708Z,97201.25
2024-02-28T18:04:31.148Z,97205.00
2024-02-28T18:06:57.750Z,97202.03
2024-02-28T18:09:25.640Z,97196.38
2024-02-28T18:11:53.369Z,97199.97
2024-02-28T18:14:19.880Z,97198.94
2024-02-28T18:16:46.380Z,97203.44
2024-02-28T18:19:12.889Z,97206.00
2024-02-28T18:21:39.407Z,97210.41
2024-02-28T18:24:05.884Z,97210.78
2024-02-28T18:26:32.324Z,97208.13
2024-02-28T18:28:58.766Z,97215.59
2024-02-28T18:31:25.246Z,97224.09
2024-02-28T18:33:51.780Z,97210.19
2024-02-28T18:36:18.262Z,97218.50
2024-02-28T18:38:44.709Z,97209.69
2024-02-28T18:41:11.160Z,97223.06
2024-02-28T18:43:37.624Z,97216.59
2024-02-28T18:46:04.200Z,97221.63
2024-02-28T18:48:30.787Z,97223.22
2024-02-28T18:50:57.375Z,97221.69
2024-02-28T18:53:23.839Z,97220.63
2024-02-28T18:55:50.345Z,97226.50
2024-02-28T18:58:16.793Z,97222.81
2024-02-28T19:00:43.368Z,97218.78
2024-02-28T19:03:09.843Z,97212.38
2024-02-28T19:05:36.401Z,97220.28
2024-02-28T19:08:02.918Z,97209.63
2024-02-28T19:10:29.387Z,97218.53
2024-02-28T19:12:55.898Z,97223.84
2024-02-28T19:15:22.495Z,97205.53
2024-02-28T19:17:49.024Z,97214.00
2024-02-28T19:20:15.603Z,97215.03
2024-02-28T19:22:42.073Z,97209.84
2024-02-28T19:25:08.724Z,97209.59
2024-02-28T19:27:35.279Z,97215.03
2024-02-28T19:30:01.844Z,97207.63
2024-02-28T19:32:28.385Z,97221.06
2024-02-28T19:34:54.898Z,97210.88
2024-02-28T19:37:21.491Z,97217.47
2024-02-28T19:39:48.066Z,97224.66
2024-02-28T19:42:14.567Z,97220.59
2024-02-28T19:44:41.076Z,97221.88
2024-02-28T19:47:10.379Z,97221.63
2024-02-28T19:49:36.848Z,97224.66
2024-02-28T19:52:03.443Z,97231.84
2024-02-28T19:54:29.954Z,97225.59
2024-02-28T19:56:56.564Z,97228.56
2024-02-28T19:59:23.097Z,97234.13
2024-02-28T20:01:49.752Z,97226.16
2024-02-28T20:04:16.398Z,97235.00
2024-02-28T20:06:43.348Z,97225.91
2024-02-28T20:09:09.983Z,97228.25
2024-02-28T20:11:36.819Z,97228.81
2024-02-28T20:14:03.333Z,97222.31
2024-02-28T20:16:29.806Z,97227.88
2024-02-28T20:18:56.324Z,97219.47
2024-02-28T20:21:28.020Z,97221.38
2024-02-28T20:23:57.520Z,97219.13
2024-02-28T20:26:24.014Z,97217.84
2024-02-28T20:28:50.477Z,97217.72
2024-02-28T20:31:17.106Z,97213.22
2024-02-28T20:33:43.569Z,97212.56
2024-02-28T20:36:10.027Z,97208.75
2024-02-28T20:38:36.606Z,97204.34
2024-02-28T20:41:03.218Z,97202.34
2024-02-28T20:43:29.659Z,97204.50
2024-02-28T20:45:56.175Z,97205.50
2024-02-28T20:48:22.758Z,97198.72
2024-02-28T20:50:49.313Z,97200.44
2024-02-28T20:53:15.941Z,97204.88
2024-02-28T20:55:42.456Z,97199.41
2024-02-28T20:58:08.987Z,97195.66
2024-02-28T21:00:35.555Z,97201.75
2024-02-28T21:03:02.064Z,97198.44
2024-02-28T21:05:28.556Z,97195.31
2024-02-28T21:07:55.201Z,97197.50
2024-02-28T21:10:21.959Z,97183.00
2024-02-28T21:12:48.475Z,97183.09
2024-02-28T21:15:15.037Z,97185.09
2024-02-28T21:17:41.529Z,97179.53
2024-02-28T21:20:08.129Z,97178.63
2024-02-28T21:22:34.751Z,97182.19
2024-02-28T21:25:01.508Z,97184.28
2024-02-28T21:27:28.167Z,97187.97
2024-02-28T21:29:54.836Z,97185.41
2024-02-28T21:32:21.331Z,97187.09
2024-02-28T21:34:48.157Z,97184.72
2024-02-28T21:37:14.778Z,97185.59
2024-02-28T21:39:41.282Z,97186.59
2024-02-28T21:42:07.750Z,97188.06
2024-02-28T21:44:34.365Z,97177.13
2024-02-28T21:47:00.887Z,97179.44
2024-02-28T21:49:27.405Z,97177.94
2024-02-28T21:51:54.012Z,97175.22
2024-02-28T21:54:20.709Z,97175.66
2024-02-28T21:56:47.161Z,97171.03
2024-02-28T21:59:13.690Z,97168.09
2024-02-28T22:01:40.231Z,97164.09
2024-02-28T22:04:06.845Z,97164.91
2024-02-28T22:06:33.501Z,97162.66
2024-02-28T22:09:00.061Z,97166.69
2024-02-28T22:11:26.678Z,97171.00
2024-02-28T22:13:53.155Z,97170.31
2024-02-28T22:16:19.634Z,97173.16
2024-02-28T22:18:46.251Z,97169.53
2024-02-28T22:21:12.859Z,97165.69
2024-02-28T22:23:39.301Z,97164.72
2024-02-28T22:26:05.770Z,97162.09
2024-02-28T22:28:32.210Z,97166.97
2024-02-28T22:30:58.762Z,97171.69
2024-02-28T22:33:25.240Z,97167.41
2024-02-28T22:35:51.695Z,97163.13
2024-02-28T22:38:18.146Z,97162.47
2024-02-28T22:40:44.611Z,97161.69
2024-02-28T22:43:11.130Z,97166.47
2024-02-28T22:45:37.706Z,97154.31
2024-02-28T22:48:04.213Z,97153.00
2024-02-28T22:50:30.729Z,97147.56
2024-02-28T22:52:57.185Z,97159.13
2024-02-28T22:55:23.806Z,97154.09
2024-02-28T22:57:50.273Z,97153.41
2024-02-28T23:00:16.806Z,97152.16
2024-02-28T23:02:43.298Z,97148.13
2024-02-28T23:05:09.746Z,97142.91
2024-02-28T23:07:36.274Z,97136.47
2024-02-28T23:10:02.806Z,97132.81
2024-02-28T23:12:29.311Z,97130.53
2024-02-28T23:14:55.883Z,97130.88
2024-02-28T23:17:22.420Z,97130.06
2024-02-28T23:19:50.327Z,97117.97
2024-02-28T23:22:16.981Z,97111.81
2024-02-28T23:24:43.517Z,97118.97
2024-02-28T23:27:10.075Z,97120.09
2024-02-28T23:29:36.568Z,97118.03
2024-02-28T23:32:03.019Z,97115.84
2024-02-28T23:34:29.533Z,97122.06
2024-02-28T23:36:56.006Z,97120.72
2024-02-28T23:39:22.486Z,97113.66
2024-02-28T23:41:48.936Z,97120.97
2024-02-28T23:44:15.413Z,97129.91
2024-02-28T23:46:41.860Z,97126.38
2024-02-28T23:49:08.373Z,97123.06
2024-02-28T23:51:34.979Z,97129.91
2024-02-28T23:54:01.470Z,97116.91
2024-02-28T23:56:27.920Z,97124.47
2024-02-28T23:58:54.366Z,97122.34
